KTSP/TSP METAR and TAF weather

Enter ICAO airport designator
Station Type Date Time Source
KTSP METAR 2024/04/18 07:15 UTC NOAA

KTSP 180715Z AUTO 36004KT 09/09 A3009 RMK AO2


Station Type Date Time Source
KTSP Decoded METAR 2024/04/18 07:15 UTC NOAA

Station name not available
Apr 18, 2024 - 03:15 AM EDT / 2024.04.18 0715 UTC
Wind: from the N (360 degrees) at 5 MPH (4 KT):0
Temperature: 48 F (9 C)
Dew Point: 48 F (9 C)
Relative Humidity: 100%
Pressure (altimeter): 30.09 in. Hg (1018 hPa)
ob: KTSP 180715Z AUTO 36004KT 09/09 A3009 RMK AO2
cycle: 7

Station Type Date Time Source
KTSP TAF UTC NOAA

Error!

Example: see airport list